Time;durP1;ratioP1;P1;durP2;ratioP2;P2;SDS_P1;SDS_P2;PMS_P1;PMS_P2;Temp;Humidity;BMP_temperature;BMP_pressure;BME280_temperature;BME280_humidity;BME280_pressure;Samples;Min_cycle;Max_cycle;Signal;HPM_P1;HPM_P2
2022/07/28 00:01:52;;;;;;;2.13;0.93;;;13.30;99.90;;;;;;6257235;22;20019;-94
2022/07/28 00:04:18;;;;;;;1.90;0.83;;;13.30;99.90;;;;;;6257317;22;20406;-92
2022/07/28 00:06:44;;;;;;;1.43;0.70;;;13.20;99.90;;;;;;6257280;22;20069;-93
2022/07/28 00:16:56;;;;;;;1.50;0.70;;;13.10;99.90;;;;;;6309671;22;20023;-93
2022/07/28 00:19:21;;;;;;;2.60;1.05;;;13.00;99.90;;;;;;6257306;22;20022;-92
2022/07/28 00:21:47;;;;;;;2.90;1.00;;;13.00;99.90;;;;;;6256947;22;20077;-95
2022/07/28 00:24:54;;;;;;;2.00;0.77;;;13.00;99.90;;;;;;6256633;22;20280;-91
2022/07/28 00:27:19;;;;;;;1.90;0.70;;;13.00;99.90;;;;;;6256678;22;20069;-93
2022/07/28 00:29:45;;;;;;;2.03;0.80;;;13.00;99.90;;;;;;6257214;22;20019;-91
2022/07/28 00:32:11;;;;;;;2.63;1.00;;;13.00;99.90;;;;;;6257122;22;20090;-96
2022/07/28 00:34:36;;;;;;;2.73;1.13;;;13.00;99.90;;;;;;6257143;22;20254;-94
2022/07/28 00:37:03;;;;;;;5.67;2.60;;;13.00;99.90;;;;;;6257210;22;20398;-94
2022/07/28 03:20:46;;;;;;;1.52;0.50;;;12.80;99.90;;;;;;6337758;22;20023;-95
2022/07/28 03:23:24;;;;;;;1.77;0.73;;;12.80;99.90;;;;;;6285856;22;20018;-94
2022/07/28 03:25:53;;;;;;;2.72;0.60;;;12.80;99.90;;;;;;6286558;22;20328;-94
2022/07/28 03:28:20;;;;;;;2.15;0.82;;;12.80;99.90;;;;;;6286949;22;20019;-91
2022/07/28 03:31:00;;;;;;;1.25;0.60;;;12.80;99.90;;;;;;6296541;22;20029;-88
2022/07/28 03:33:26;;;;;;;2.50;0.70;;;12.80;99.90;;;;;;6311680;22;20022;-89
2022/07/28 03:35:57;;;;;;;2.00;0.68;;;12.80;99.90;;;;;;6285939;22;20015;-91
2022/07/28 03:38:44;;;;;;;3.05;0.73;;;12.80;99.90;;;;;;6285618;22;20015;-95
2022/07/28 03:41:12;;;;;;;0.93;0.57;;;12.90;99.90;;;;;;6286126;22;20034;-93
2022/07/28 03:43:38;;;;;;;4.03;0.75;;;12.90;99.90;;;;;;6286297;22;20040;-94
2022/07/28 03:46:06;;;;;;;1.58;0.50;;;12.90;99.90;;;;;;6286033;22;20015;-94
2022/07/28 03:48:33;;;;;;;1.25;0.60;;;12.90;99.90;;;;;;6286079;22;20035;-94
2022/07/28 03:51:28;;;;;;;3.20;1.13;;;12.90;99.90;;;;;;6285908;22;20167;-92
2022/07/28 03:53:57;;;;;;;2.80;1.02;;;13.00;99.90;;;;;;6286685;22;20072;-94
2022/07/28 03:56:32;;;;;;;2.57;0.80;;;12.90;99.90;;;;;;6285596;22;20015;-91
2022/07/28 03:58:58;;;;;;;3.05;0.90;;;13.00;99.90;;;;;;6285930;22;20018;-88
2022/07/28 04:01:24;;;;;;;2.60;1.03;;;13.00;99.90;;;;;;6285875;22;20022;-92
2022/07/28 04:03:49;;;;;;;2.80;1.00;;;13.00;99.90;;;;;;6286954;22;20459;-88
2022/07/28 04:06:15;;;;;;;2.77;0.90;;;13.00;99.90;;;;;;6310195;22;20021;-87
2022/07/28 04:08:41;;;;;;;1.90;0.82;;;13.00;99.90;;;;;;6303696;22;20022;-91
2022/07/28 04:11:07;;;;;;;1.45;0.80;;;13.00;99.90;;;;;;6290876;22;20026;-95
2022/07/28 04:13:35;;;;;;;2.40;0.90;;;13.00;99.90;;;;;;6292817;22;20015;-95
2022/07/28 04:16:01;;;;;;;2.83;1.00;;;12.90;99.90;;;;;;6292346;22;20103;-92
2022/07/28 04:18:27;;;;;;;2.42;0.80;;;12.90;99.90;;;;;;6295244;22;20015;-92
2022/07/28 04:20:54;;;;;;;4.07;0.98;;;12.90;99.90;;;;;;6294778;22;20011;-93
2022/07/28 04:23:21;;;;;;;2.55;0.95;;;12.90;99.90;;;;;;6318159;22;20021;-92
2022/07/28 04:25:47;;;;;;;2.60;1.00;;;12.80;99.90;;;;;;6289973;22;20017;-91
2022/07/28 04:28:14;;;;;;;3.22;1.20;;;12.80;99.90;;;;;;6294803;22;20019;-96
2022/07/28 04:30:40;;;;;;;3.05;1.10;;;12.80;99.90;;;;;;6290413;22;20006;-93
2022/07/28 04:33:05;;;;;;;3.45;1.08;;;12.70;99.90;;;;;;6290798;22;20037;-96
2022/07/28 04:35:33;;;;;;;2.50;1.00;;;12.70;99.90;;;;;;6290949;22;20033;-95
2022/07/28 04:38:00;;;;;;;3.20;1.10;;;12.70;99.90;;;;;;6289718;22;20502;-93
2022/07/28 04:40:26;;;;;;;2.50;1.00;;;12.70;99.90;;;;;;6290965;22;20011;-92
2022/07/28 04:42:52;;;;;;;;;;;12.70;99.90;;;;;;6291393;22;20015;-93
2022/07/28 04:45:18;;;;;;;2.95;1.15;;;12.80;99.90;;;;;;6290031;22;19959;-96
2022/07/28 04:47:44;;;;;;;3.38;1.30;;;12.80;99.90;;;;;;6292894;22;20015;-92
2022/07/28 04:50:14;;;;;;;3.33;1.08;;;12.80;99.90;;;;;;6293858;22;20011;-92
2022/07/28 04:53:29;;;;;;;2.50;0.98;;;12.80;99.90;;;;;;6292263;22;20018;-93
2022/07/28 04:55:58;;;;;;;2.10;1.10;;;12.90;99.90;;;;;;6232819;22;20021;-94
2022/07/28 04:58:23;;;;;;;2.43;1.00;;;12.90;99.90;;;;;;6321603;22;20046;-94
2022/07/28 05:00:50;;;;;;;2.40;1.07;;;12.90;99.90;;;;;;6294756;22;20092;-96
2022/07/28 05:03:15;;;;;;;1.98;1.00;;;12.90;99.90;;;;;;6292001;22;20435;-96
2022/07/28 05:05:41;;;;;;;2.57;0.90;;;13.00;99.90;;;;;;6292166;22;20022;-96
2022/07/28 05:08:07;;;;;;;2.70;0.93;;;13.00;99.90;;;;;;6293609;22;20259;-93
2022/07/28 05:10:32;;;;;;;1.63;0.70;;;13.10;99.90;;;;;;6294961;22;20010;-96
2022/07/28 05:13:04;;;;;;;2.87;1.07;;;13.10;99.90;;;;;;6297684;22;20024;-95
2022/07/28 05:15:30;;;;;;;3.58;0.82;;;13.10;99.90;;;;;;6246993;22;20015;-92
2022/07/28 05:34:25;;;;;;;4.28;1.00;;;13.20;99.90;;;;;;6240798;22;20020;-90
2022/07/28 05:36:51;;;;;;;2.30;0.97;;;13.30;99.90;;;;;;6256213;22;20025;-88
2022/07/28 05:39:17;;;;;;;1.93;0.70;;;13.40;99.90;;;;;;6255953;22;20045;-94
2022/07/28 05:41:42;;;;;;;2.20;0.90;;;13.40;99.90;;;;;;6255854;22;20027;-90
2022/07/28 05:44:08;;;;;;;2.10;0.70;;;13.50;99.90;;;;;;6256287;22;20060;-95
2022/07/28 05:46:34;;;;;;;2.00;0.67;;;13.50;99.90;;;;;;6256251;22;20047;-89
2022/07/28 05:49:00;;;;;;;2.17;0.70;;;13.60;99.90;;;;;;6255655;22;20056;-94
2022/07/28 05:51:25;;;;;;;3.17;1.40;;;13.60;99.90;;;;;;6255854;22;20016;-90
2022/07/28 05:57:36;;;;;;;1.35;0.73;;;13.70;99.90;;;;;;6150301;23;20064;-92
2022/07/28 06:00:39;;;;;;;1.63;0.80;;;13.80;99.90;;;;;;6251238;22;20011;-93
2022/07/28 06:03:04;;;;;;;1.33;0.60;;;13.80;99.90;;;;;;6253274;22;20098;-92
2022/07/28 06:05:35;;;;;;;3.70;0.70;;;13.90;99.90;;;;;;6264501;22;20023;-91
2022/07/28 06:08:19;;;;;;;1.73;0.82;;;14.00;99.90;;;;;;6294620;22;20013;-91
2022/07/28 06:13:29;;;;;;;2.47;0.82;;;14.10;99.90;;;;;;6299917;22;20049;-92
2022/07/28 06:18:23;;;;;;;2.27;0.90;;;14.10;99.90;;;;;;6316950;22;20114;-93
2022/07/28 06:20:49;;;;;;;1.42;0.68;;;14.20;99.90;;;;;;6268947;22;20019;-89
2022/07/28 06:23:22;;;;;;;1.63;0.73;;;14.10;99.90;;;;;;6267650;22;20049;-92
2022/07/28 06:25:48;;;;;;;2.15;0.77;;;14.20;99.90;;;;;;6263487;22;20029;-95
2022/07/28 06:28:14;;;;;;;2.13;1.10;;;14.20;99.90;;;;;;6266123;22;20447;-92
2022/07/28 06:30:40;;;;;;;2.57;0.80;;;14.20;99.90;;;;;;6290391;22;20022;-94
2022/07/28 06:39:22;;;;;;;4.32;1.50;;;14.30;99.90;;;;;;6341893;22;20026;-94
2022/07/28 06:41:48;;;;;;;2.97;0.90;;;14.30;99.90;;;;;;6286469;22;20023;-95
2022/07/28 06:44:13;;;;;;;1.87;0.90;;;14.30;99.90;;;;;;6312500;22;20718;-94
2022/07/28 06:46:39;;;;;;;2.73;1.03;;;14.40;99.90;;;;;;6318716;22;20002;-90
2022/07/28 06:49:34;;;;;;;;;;;;;;;;;;;;;
2022/07/28 06:52:03;;;;;;;;;;;14.30;99.90;;;;;;6310834;22;20076;-94
2022/07/28 06:54:28;;;;;;;2.63;1.20;;;14.40;99.90;;;;;;6286526;22;19914;-94
2022/07/28 06:56:54;;;;;;;2.77;1.10;;;14.40;99.90;;;;;;6286974;22;20432;-92
2022/07/28 06:59:23;;;;;;;2.47;0.90;;;14.30;99.90;;;;;;6285270;22;20021;-94
2022/07/28 07:01:49;;;;;;;2.15;0.98;;;14.30;99.90;;;;;;6285058;22;20069;-94
2022/07/28 07:04:14;;;;;;;1.63;0.70;;;14.30;99.90;;;;;;6285876;22;20025;-91
2022/07/28 07:06:40;;;;;;;3.20;1.20;;;14.30;99.90;;;;;;6286440;22;20017;-91
2022/07/28 07:09:06;;;;;;;2.33;0.83;;;14.30;99.90;;;;;;6286503;22;20026;-95
2022/07/28 07:12:11;;;;;;;;;;;;;;;;;;;;;
2022/07/28 07:14:37;;;;;;;2.58;0.90;;;14.30;99.90;;;;;;6306830;22;20398;-93
2022/07/28 07:17:03;;;;;;;2.57;0.90;;;14.30;99.90;;;;;;6286443;22;20094;-95
2022/07/28 07:19:29;;;;;;;2.85;0.77;;;14.30;99.90;;;;;;6286121;22;20022;-92
2022/07/28 07:25:10;;;;;;;1.73;0.65;;;14.30;99.90;;;;;;6154919;22;20756;-92
2022/07/28 07:27:36;;;;;;;1.08;0.60;;;14.30;99.90;;;;;;6286345;22;20019;-91
2022/07/28 07:30:04;;;;;;;2.95;0.95;;;14.30;99.90;;;;;;6285793;22;20429;-94
2022/07/28 07:32:30;;;;;;;2.00;0.85;;;14.30;99.90;;;;;;6285869;22;20101;-92
2022/07/28 07:35:38;;;;;;;;;;;;;;;;;;;;;
2022/07/28 07:57:00;;;;;;;3.88;0.90;;;14.60;99.90;;;;;;6308551;22;20036;-95
2022/07/28 07:59:26;;;;;;;2.57;1.03;;;14.70;99.90;;;;;;6257449;22;20098;-93
2022/07/28 08:14:57;;;;;;;2.45;0.65;;;15.00;99.90;;;;;;6310036;22;20476;-93
2022/07/28 08:36:05;;;;;;;0.80;0.40;;;15.50;99.90;;;;;;6253779;22;20020;-93
2022/07/28 08:38:30;;;;;;;0.77;0.30;;;15.60;99.90;;;;;;6226090;22;20030;-94
2022/07/28 08:40:59;;;;;;;0.67;0.33;;;15.70;99.90;;;;;;6226417;22;20050;-93
2022/07/28 08:43:34;;;;;;;0.65;0.30;;;15.80;99.90;;;;;;6226143;22;20321;-91
2022/07/28 08:46:02;;;;;;;1.20;0.43;;;15.80;99.90;;;;;;6226422;22;20016;-92
2022/07/28 08:48:31;;;;;;;2.42;0.38;;;15.90;99.90;;;;;;6226496;22;20023;-92
2022/07/28 08:51:05;;;;;;;1.00;0.30;;;16.00;99.90;;;;;;6226569;22;20015;-91
2022/07/28 08:53:33;;;;;;;0.88;0.40;;;16.00;99.90;;;;;;6251110;22;20015;-90
2022/07/28 08:56:04;;;;;;;0.65;0.30;;;16.10;99.90;;;;;;6240079;22;20016;-92
2022/07/28 08:58:32;;;;;;;0.43;0.20;;;16.20;99.90;;;;;;6226483;22;20023;-92
2022/07/28 09:06:10;;;;;;;1.80;0.50;;;16.20;99.90;;;;;;6309175;22;20030;-95
2022/07/28 09:29:11;;;;;;;0.93;0.40;;;16.80;99.90;;;;;;6277079;22;20053;-93
2022/07/28 09:32:06;;;;;;;1.13;0.40;;;16.90;99.90;;;;;;6225732;22;20016;-90
2022/07/28 09:34:44;;;;;;;1.42;0.30;;;17.00;99.90;;;;;;6242274;22;20024;-91
2022/07/28 09:37:28;;;;;;;1.02;0.30;;;17.00;99.90;;;;;;6225245;22;20341;-89
2022/07/28 09:40:37;;;;;;;0.90;0.30;;;17.00;99.90;;;;;;6225561;22;20011;-92
2022/07/28 09:45:38;;;;;;;0.43;0.20;;;16.90;99.90;;;;;;6278297;22;20354;-93
2022/07/28 09:58:35;;;;;;;0.68;0.17;;;16.60;99.90;;;;;;6251662;22;20429;-93
2022/07/28 10:01:11;;;;;;;0.17;0.13;;;16.50;99.90;;;;;;6225318;22;20046;-94
2022/07/28 10:09:06;;;;;;;1.45;0.20;;;16.70;99.90;;;;;;6308536;22;20428;-92
2022/07/28 10:24:33;;;;;;;0.32;0.20;;;17.40;99.90;;;;;;6308190;22;20023;-92
2022/07/28 10:27:02;;;;;;;1.70;0.28;;;17.50;99.90;;;;;;6255763;22;20023;-95
2022/07/28 10:29:30;;;;;;;1.33;0.22;;;17.60;99.90;;;;;;6255607;22;20015;-91
2022/07/28 10:32:20;;;;;;;0.98;0.30;;;17.70;99.90;;;;;;6255561;22;20094;-94
2022/07/28 10:35:19;;;;;;;1.00;0.63;;;17.70;99.90;;;;;;6256454;22;20081;-95
2022/07/28 10:38:10;;;;;;;0.60;0.20;;;17.80;99.90;;;;;;6187470;22;20024;-93
2022/07/28 10:40:55;;;;;;;0.22;0.20;;;17.90;99.90;;;;;;6221900;22;20380;-93
2022/07/28 10:45:55;;;;;;;0.95;0.20;;;18.00;99.90;;;;;;6332129;22;20460;-93
2022/07/28 10:56:51;;;;;;;1.08;0.30;;;18.00;99.20;;;;;;6277757;22;20023;-93
2022/07/28 10:59:50;;;;;;;1.45;0.30;;;17.90;98.80;;;;;;6239291;22;20024;-88
2022/07/28 11:09:52;;;;;;;1.35;0.25;;;17.70;99.50;;;;;;6294285;22;20158;-93
2022/07/28 11:25:34;;;;;;;1.02;0.45;;;17.30;98.90;;;;;;6306546;22;20023;-91
2022/07/28 11:28:00;;;;;;;0.90;0.20;;;17.20;98.40;;;;;;6256898;22;20053;-94
2022/07/28 11:30:27;;;;;;;0.50;0.20;;;17.20;98.30;;;;;;6282287;22;20026;-94
2022/07/28 11:33:52;;;;;;;0.52;0.20;;;17.20;98.30;;;;;;6260353;22;20090;-96
2022/07/28 11:36:18;;;;;;;0.60;0.30;;;17.10;98.30;;;;;;6141383;23;20113;-95
2022/07/28 11:39:22;;;;;;;0.85;0.20;;;17.20;98.50;;;;;;6140652;23;20016;-96
2022/07/28 11:41:48;;;;;;;0.55;0.22;;;17.20;98.50;;;;;;6142388;23;20040;-96
2022/07/28 11:44:31;;;;;;;0.90;0.20;;;17.20;98.60;;;;;;6146061;22;20470;-94
2022/07/28 11:47:19;;;;;;;0.70;0.30;;;17.30;98.70;;;;;;6256670;22;20336;-94
2022/07/28 11:50:05;;;;;;;0.93;0.30;;;17.30;98.40;;;;;;6257748;22;20015;-96
2022/07/28 11:52:31;;;;;;;0.75;0.20;;;17.40;98.40;;;;;;6255846;22;20015;-95
2022/07/28 11:55:17;;;;;;;0.38;0.22;;;17.50;98.30;;;;;;6258481;22;20054;-95
2022/07/28 13:22:03;;;;;;;0.30;0.20;;;18.70;95.80;;;;;;6304550;22;20452;-93
2022/07/28 13:37:26;;;;;;;0.82;0.30;;;18.90;95.30;;;;;;6339786;22;20030;-93
2022/07/28 13:39:52;;;;;;;0.88;0.63;;;19.00;95.50;;;;;;6290360;22;20014;-96
2022/07/28 15:12:33;;;;;;;1.85;0.40;;;19.50;90.80;;;;;;6305236;22;20030;-88
2022/07/28 15:15:00;;;;;;;2.38;0.28;;;19.50;91.10;;;;;;6286416;22;20015;-91
2022/07/28 15:17:25;;;;;;;0.98;0.28;;;19.50;91.10;;;;;;6285828;22;20105;-92
2022/07/28 15:19:51;;;;;;;1.48;0.50;;;19.40;91.50;;;;;;6286168;22;20392;-89
2022/07/28 15:22:17;;;;;;;2.92;0.40;;;19.40;91.10;;;;;;6285977;22;20045;-93
2022/07/28 15:24:44;;;;;;;1.65;0.57;;;19.30;91.10;;;;;;6285872;22;20057;-89
2022/07/28 15:27:22;;;;;;;1.63;0.30;;;19.30;91.20;;;;;;6286549;22;20029;-87
2022/07/28 15:30:07;;;;;;;0.95;0.30;;;19.20;91.10;;;;;;6285880;22;20007;-86
2022/07/28 15:32:32;;;;;;;0.75;0.30;;;19.20;90.60;;;;;;6283505;22;20072;-87
2022/07/28 15:34:58;;;;;;;0.73;0.30;;;19.20;91.00;;;;;;6312076;22;20023;-89
2022/07/28 15:37:26;;;;;;;1.13;0.30;;;19.20;91.00;;;;;;6285854;22;20026;-89
2022/07/28 15:39:51;;;;;;;1.38;0.35;;;19.20;91.00;;;;;;6310684;22;20054;-91
2022/07/28 15:42:17;;;;;;;0.60;0.30;;;19.20;91.20;;;;;;6285345;22;20014;-94
2022/07/28 15:45:14;;;;;;;1.90;0.32;;;19.20;91.20;;;;;;6285310;22;20021;-89
2022/07/28 15:48:35;;;;;;;1.00;0.30;;;19.20;91.20;;;;;;6287944;22;20049;-89
2022/07/28 15:51:01;;;;;;;2.17;0.35;;;19.10;91.40;;;;;;6285618;22;20407;-94
2022/07/28 15:53:27;;;;;;;0.80;0.32;;;19.10;91.50;;;;;;6285824;22;20023;-89
2022/07/28 15:55:53;;;;;;;0.65;0.30;;;19.10;91.50;;;;;;6285595;22;20019;-92
2022/07/28 15:58:20;;;;;;;2.33;0.30;;;19.10;91.60;;;;;;6285800;22;20029;-94
2022/07/28 16:00:47;;;;;;;0.52;0.20;;;19.00;91.60;;;;;;6285867;22;20022;-92
2022/07/28 16:03:13;;;;;;;0.63;0.28;;;19.00;91.60;;;;;;6313179;22;20093;-93
2022/07/28 16:05:39;;;;;;;0.77;0.20;;;19.00;91.50;;;;;;6286297;22;20014;-90
2022/07/28 16:08:05;;;;;;;0.85;0.30;;;19.00;91.60;;;;;;6311476;22;20065;-94
2022/07/28 16:10:31;;;;;;;0.88;0.22;;;19.00;91.70;;;;;;6286101;22;20014;-91
2022/07/28 16:12:57;;;;;;;0.35;0.17;;;18.90;91.70;;;;;;6286931;22;20018;-88
2022/07/28 16:15:26;;;;;;;1.35;0.35;;;18.90;91.70;;;;;;6341089;22;20015;-92
2022/07/28 16:17:55;;;;;;;0.30;0.10;;;18.90;91.80;;;;;;6287771;22;20022;-92
2022/07/28 16:20:33;;;;;;;0.38;0.20;;;18.90;92.00;;;;;;6314610;22;20019;-91
2022/07/28 16:22:59;;;;;;;1.33;0.28;;;18.80;91.80;;;;;;6289659;22;20019;-93
2022/07/28 16:25:25;;;;;;;0.63;0.20;;;18.80;91.80;;;;;;6298270;22;20037;-88
2022/07/28 16:27:51;;;;;;;0.73;0.30;;;18.80;91.60;;;;;;6306046;22;20026;-88
2022/07/28 16:30:17;;;;;;;0.93;0.20;;;18.70;91.50;;;;;;6324506;22;20089;-93
2022/07/28 16:32:44;;;;;;;1.20;0.22;;;18.70;91.80;;;;;;6287361;22;20091;-91
2022/07/28 16:35:10;;;;;;;0.13;0.10;;;18.70;91.80;;;;;;6287071;22;20011;-90
2022/07/28 16:37:41;;;;;;;0.57;0.30;;;18.70;91.80;;;;;;6287155;22;20068;-91
2022/07/28 16:40:09;;;;;;;1.67;0.30;;;18.70;91.80;;;;;;6287054;22;20018;-89
2022/07/28 16:42:34;;;;;;;1.65;0.25;;;18.70;91.80;;;;;;6286995;22;20336;-92
2022/07/28 16:45:01;;;;;;;0.98;0.40;;;18.70;91.90;;;;;;6287145;22;20023;-90
2022/07/28 16:47:27;;;;;;;0.60;0.30;;;18.70;91.80;;;;;;6287344;22;20084;-91
2022/07/28 16:49:53;;;;;;;;;;;18.70;91.80;;;;;;6313446;22;20015;-91
2022/07/28 16:52:18;;;;;;;0.50;0.20;;;18.70;91.90;;;;;;6287313;22;19917;-90
2022/07/28 16:54:44;;;;;;;0.85;0.30;;;18.70;92.00;;;;;;6312651;22;20184;-92
2022/07/28 16:57:11;;;;;;;0.95;0.52;;;18.70;91.90;;;;;;6287374;22;20021;-90
2022/07/28 16:59:38;;;;;;;0.60;0.22;;;18.70;91.90;;;;;;6287095;22;20038;-90
2022/07/28 17:02:04;;;;;;;0.50;0.20;;;18.70;92.00;;;;;;6290312;22;20066;-87
2022/07/28 17:04:29;;;;;;;0.75;0.35;;;18.70;92.00;;;;;;6302636;22;20019;-87
2022/07/28 17:06:55;;;;;;;1.27;0.30;;;18.60;92.10;;;;;;6288535;22;20163;-94
2022/07/28 17:09:21;;;;;;;0.90;0.30;;;18.60;92.00;;;;;;6287911;22;20019;-90
2022/07/28 17:11:47;;;;;;;0.60;0.30;;;18.60;92.10;;;;;;6312515;22;20010;-90
2022/07/28 17:14:15;;;;;;;0.98;0.30;;;18.60;92.20;;;;;;6286704;22;20083;-91
2022/07/28 17:16:41;;;;;;;1.65;0.43;;;18.60;92.00;;;;;;6286846;22;20094;-90
2022/07/28 17:19:07;;;;;;;1.58;0.20;;;18.60;91.90;;;;;;6312417;22;20049;-91
2022/07/28 17:21:34;;;;;;;1.17;0.30;;;18.60;91.90;;;;;;6286646;22;20015;-93
2022/07/28 17:24:00;;;;;;;0.60;0.30;;;18.50;92.00;;;;;;6286714;22;20054;-93
2022/07/28 17:26:26;;;;;;;1.58;0.20;;;18.50;92.00;;;;;;6312747;22;20041;-91
2022/07/28 17:28:52;;;;;;;0.57;0.30;;;18.50;92.00;;;;;;6312768;22;20371;-89
2022/07/28 17:31:18;;;;;;;0.68;0.30;;;18.50;92.10;;;;;;6286938;22;20014;-93
2022/07/28 17:33:44;;;;;;;0.43;0.20;;;18.50;92.00;;;;;;6287094;22;20044;-93
2022/07/28 17:36:10;;;;;;;0.50;0.30;;;18.50;92.10;;;;;;6312572;22;20019;-90
2022/07/28 17:38:36;;;;;;;1.38;0.30;;;18.40;92.10;;;;;;6312670;22;20010;-93
2022/07/28 17:41:06;;;;;;;0.45;0.20;;;18.40;92.20;;;;;;6286908;22;20045;-91
2022/07/28 17:43:32;;;;;;;0.77;0.30;;;18.40;92.20;;;;;;6286313;22;20351;-91
2022/07/28 17:45:57;;;;;;;0.47;0.20;;;18.30;92.20;;;;;;6311223;22;20129;-90
2022/07/28 17:48:23;;;;;;;1.58;0.50;;;18.30;92.30;;;;;;6285803;22;20050;-90
2022/07/28 17:50:50;;;;;;;1.83;0.32;;;18.20;92.30;;;;;;6286255;22;20015;-92
2022/07/28 17:53:19;;;;;;;1.45;0.30;;;18.20;92.40;;;;;;6286601;22;20018;-90
2022/07/28 17:55:45;;;;;;;0.88;0.30;;;18.10;92.50;;;;;;6286492;22;20045;-88
2022/07/28 17:58:24;;;;;;;1.20;0.40;;;18.10;92.70;;;;;;6286248;22;20026;-88
2022/07/28 18:00:55;;;;;;;1.05;0.20;;;18.10;92.40;;;;;;6286161;22;20015;-89
2022/07/28 18:03:23;;;;;;;0.43;0.22;;;18.00;92.50;;;;;;6311889;22;20027;-89
2022/07/28 18:05:49;;;;;;;0.70;0.30;;;18.00;92.50;;;;;;6286176;22;20090;-89
2022/07/28 18:08:18;;;;;;;0.70;0.20;;;18.00;92.50;;;;;;6285870;22;20061;-88
2022/07/28 18:10:52;;;;;;;0.32;0.20;;;17.90;92.60;;;;;;6286049;22;20083;-88
2022/07/28 18:13:19;;;;;;;1.23;0.40;;;17.90;92.60;;;;;;6311335;22;20014;-87
2022/07/28 18:15:45;;;;;;;0.60;0.20;;;17.80;92.80;;;;;;6285728;22;20331;-88
2022/07/28 18:18:11;;;;;;;0.68;0.30;;;17.80;92.90;;;;;;6286037;22;20023;-91
2022/07/28 18:20:37;;;;;;;0.57;0.20;;;17.70;93.10;;;;;;6286008;22;20046;-88
2022/07/28 18:23:07;;;;;;;0.75;0.30;;;17.70;92.90;;;;;;6312380;22;20021;-89
2022/07/28 18:25:34;;;;;;;1.00;0.30;;;17.60;93.00;;;;;;6285870;22;20006;-91
2022/07/28 18:28:00;;;;;;;0.93;0.28;;;17.50;93.10;;;;;;6311911;22;20050;-91
2022/07/28 18:30:27;;;;;;;0.63;0.20;;;17.40;93.10;;;;;;6286262;22;20011;-92
2022/07/28 18:32:53;;;;;;;0.60;0.25;;;17.40;93.30;;;;;;6339599;22;20018;-90
2022/07/28 18:35:19;;;;;;;1.27;0.38;;;17.40;93.40;;;;;;6285753;22;20438;-90
2022/07/28 18:37:45;;;;;;;;;;;17.30;93.50;;;;;;6311849;22;20052;-88
2022/07/28 18:40:13;;;;;;;0.80;0.30;;;17.30;93.70;;;;;;6285821;22;19922;-90
2022/07/28 18:42:39;;;;;;;0.70;0.20;;;17.30;93.60;;;;;;6311739;22;20092;-88
2022/07/28 18:45:05;;;;;;;0.60;0.20;;;17.20;93.70;;;;;;6311622;22;20019;-87
2022/07/28 18:47:31;;;;;;;0.65;0.28;;;17.20;93.90;;;;;;6339032;22;20086;-87
2022/07/28 18:49:58;;;;;;;1.08;0.40;;;17.10;94.00;;;;;;6339183;22;20022;-88
2022/07/28 18:52:24;;;;;;;0.80;0.30;;;17.10;94.20;;;;;;6285856;22;20021;-92
2022/07/28 18:54:51;;;;;;;1.30;0.30;;;17.10;94.40;;;;;;6286045;22;20014;-91
2022/07/28 18:57:17;;;;;;;0.93;0.30;;;17.00;94.40;;;;;;6338989;22;20029;-89
2022/07/28 18:59:43;;;;;;;1.67;0.47;;;17.00;94.60;;;;;;6285601;22;20057;-88
2022/07/28 19:02:13;;;;;;;1.45;0.47;;;17.00;94.70;;;;;;6285661;22;20019;-87
2022/07/28 19:04:40;;;;;;;0.85;0.40;;;17.00;95.00;;;;;;6285364;22;20075;-87
2022/07/28 19:07:06;;;;;;;1.15;0.30;;;16.90;95.00;;;;;;6338987;22;20019;-90
2022/07/28 19:09:32;;;;;;;1.25;0.60;;;16.90;95.10;;;;;;6313997;22;20432;-87
2022/07/28 19:11:59;;;;;;;2.92;0.40;;;16.80;95.20;;;;;;6326852;22;20026;-86
2022/07/28 19:14:25;;;;;;;0.75;0.30;;;16.80;95.20;;;;;;6323137;22;20011;-92
2022/07/28 19:16:51;;;;;;;1.00;0.30;;;16.70;95.50;;;;;;6341303;22;20015;-87
2022/07/28 19:19:17;;;;;;;0.65;0.30;;;16.70;95.50;;;;;;6311148;22;20348;-92
2022/07/28 19:21:43;;;;;;;1.20;0.35;;;16.60;95.70;;;;;;6285758;22;20022;-88
2022/07/28 19:24:09;;;;;;;0.65;0.20;;;16.60;95.80;;;;;;6285387;22;20015;-88
2022/07/28 19:26:34;;;;;;;0.70;0.30;;;16.50;96.00;;;;;;6338206;22;20033;-91
2022/07/28 19:29:00;;;;;;;1.95;0.40;;;16.50;96.10;;;;;;6284960;22;20037;-90
2022/07/28 19:31:26;;;;;;;0.98;0.40;;;16.40;96.30;;;;;;6285821;22;20018;-91
2022/07/28 19:33:52;;;;;;;0.65;0.28;;;16.40;96.30;;;;;;6311774;22;20015;-91
2022/07/28 19:36:21;;;;;;;1.08;0.43;;;16.30;96.30;;;;;;6285952;22;20098;-93
2022/07/28 19:38:46;;;;;;;0.50;0.30;;;16.30;96.50;;;;;;6311924;22;20015;-93
2022/07/28 19:41:13;;;;;;;0.95;0.30;;;16.30;96.60;;;;;;6311191;22;20450;-93
2022/07/28 19:43:39;;;;;;;2.05;0.40;;;16.20;96.60;;;;;;6286181;22;20014;-93
2022/07/28 19:46:04;;;;;;;1.27;0.38;;;16.20;96.80;;;;;;6285739;22;20014;-94
2022/07/28 19:48:30;;;;;;;1.08;0.30;;;16.20;96.90;;;;;;6323470;22;20018;-88
2022/07/28 19:50:56;;;;;;;0.68;0.35;;;16.10;96.90;;;;;;6344386;22;20015;-91
2022/07/28 19:53:22;;;;;;;1.13;0.40;;;16.10;97.10;;;;;;6313505;22;20084;-90
2022/07/28 19:55:49;;;;;;;1.00;0.40;;;16.10;97.20;;;;;;6313653;22;20018;-95
2022/07/28 19:58:19;;;;;;;2.65;0.40;;;16.00;97.50;;;;;;6313342;22;20017;-91
2022/07/28 20:00:47;;;;;;;2.55;0.40;;;16.00;97.50;;;;;;6313650;22;20018;-87
2022/07/28 20:03:14;;;;;;;1.63;0.50;;;16.10;97.60;;;;;;6313011;22;20019;-93
2022/07/28 20:05:40;;;;;;;1.33;0.60;;;16.00;97.50;;;;;;6287177;22;20014;-88
2022/07/28 20:08:06;;;;;;;1.25;0.43;;;16.00;97.70;;;;;;6287607;22;20071;-91
2022/07/28 20:10:33;;;;;;;;;;;15.90;97.60;;;;;;6313511;22;20463;-87
2022/07/28 20:12:59;;;;;;;0.40;0.30;;;15.90;98.10;;;;;;6312976;22;19926;-90
2022/07/28 20:15:25;;;;;;;0.98;0.32;;;15.90;98.00;;;;;;6312770;22;20019;-88
2022/07/28 20:17:54;;;;;;;1.27;0.40;;;15.90;98.10;;;;;;6340405;22;20019;-87
2022/07/28 20:20:20;;;;;;;1.95;0.60;;;15.90;98.10;;;;;;6287904;22;20085;-89
2022/07/28 20:22:46;;;;;;;3.00;0.60;;;15.90;98.20;;;;;;6313242;22;20018;-88
2022/07/28 20:25:12;;;;;;;1.55;0.55;;;15.90;98.40;;;;;;6313430;22;20041;-92
2022/07/28 20:27:38;;;;;;;1.65;0.50;;;15.90;98.30;;;;;;6312757;22;20029;-91
2022/07/28 20:30:05;;;;;;;1.38;0.50;;;15.90;98.20;;;;;;6312745;22;20018;-92
2022/07/28 20:32:31;;;;;;;;;;;15.90;98.30;;;;;;6287409;22;20018;-88
2022/07/28 20:34:57;;;;;;;3.25;0.90;;;15.80;98.60;;;;;;6287261;22;19914;-93
2022/07/28 20:37:23;;;;;;;1.58;0.75;;;15.80;98.50;;;;;;6287252;22;20025;-88
2022/07/28 20:39:50;;;;;;;2.28;0.80;;;15.80;98.30;;;;;;6312942;22;20011;-92
2022/07/28 20:42:17;;;;;;;3.42;1.05;;;15.70;98.60;;;;;;6312890;22;20061;-90
2022/07/28 20:44:44;;;;;;;3.30;1.40;;;15.70;98.60;;;;;;6340032;22;20017;-93
2022/07/28 20:47:09;;;;;;;;;;;15.70;98.50;;;;;;6287440;22;20015;-88
2022/07/28 20:49:35;;;;;;;9.38;4.13;;;15.60;98.90;;;;;;6312939;22;19914;-88
2022/07/28 20:52:02;;;;;;;9.30;4.85;;;15.70;98.80;;;;;;6312353;22;20015;-93
2022/07/28 20:54:28;;;;;;;6.97;3.70;;;15.60;98.80;;;;;;6287203;22;20548;-90
2022/07/28 20:56:54;;;;;;;5.45;2.55;;;15.60;98.90;;;;;;6313260;22;20317;-91
2022/07/28 20:59:20;;;;;;;5.57;2.40;;;15.60;99.00;;;;;;6286734;22;20440;-88
2022/07/28 21:01:46;;;;;;;4.55;1.70;;;15.60;99.20;;;;;;6286488;22;20021;-89
2022/07/28 21:04:11;;;;;;;2.75;0.85;;;15.70;99.10;;;;;;6312578;22;20023;-89
2022/07/28 21:06:38;;;;;;;2.65;0.80;;;15.60;99.20;;;;;;6286812;22;20019;-92
2022/07/28 21:09:04;;;;;;;3.22;0.70;;;15.60;99.30;;;;;;6312353;22;20010;-89
2022/07/28 21:11:30;;;;;;;3.90;0.70;;;15.60;99.30;;;;;;6286819;22;20140;-89
2022/07/28 21:13:56;;;;;;;1.33;0.50;;;15.60;99.60;;;;;;6286723;22;20144;-90
2022/07/28 21:16:22;;;;;;;1.60;0.70;;;15.60;99.60;;;;;;6287146;22;20068;-91
2022/07/28 21:18:48;;;;;;;1.00;0.50;;;15.60;99.50;;;;;;6286835;22;20011;-93
2022/07/28 21:21:14;;;;;;;0.80;0.40;;;15.50;99.50;;;;;;6286595;22;20060;-91
2022/07/28 21:23:40;;;;;;;1.90;0.50;;;15.50;99.50;;;;;;6286835;22;20068;-90
2022/07/28 21:26:13;;;;;;;1.38;0.57;;;15.50;99.50;;;;;;6312345;22;20015;-91
2022/07/28 21:31:23;;;;;;;0.75;0.30;;;15.40;99.70;;;;;;6340174;22;20128;-92
2022/07/28 21:33:50;;;;;;;0.70;0.30;;;15.40;99.70;;;;;;6286932;22;20061;-91
2022/07/28 21:36:17;;;;;;;1.67;0.45;;;15.40;99.70;;;;;;6311668;22;20022;-91
2022/07/28 21:38:43;;;;;;;1.27;0.50;;;15.40;99.90;;;;;;6312014;22;20018;-88
2022/07/28 21:41:08;;;;;;;1.63;0.35;;;15.30;99.90;;;;;;6286154;22;20097;-88
2022/07/28 21:43:35;;;;;;;2.03;0.50;;;15.30;99.90;;;;;;6312379;22;20383;-93
2022/07/28 21:46:01;;;;;;;1.17;0.40;;;15.30;99.90;;;;;;6312082;22;20015;-91
2022/07/28 21:48:28;;;;;;;1.30;0.55;;;15.30;99.90;;;;;;6285999;22;20023;-88
2022/07/28 21:50:54;;;;;;;2.60;0.40;;;15.30;99.90;;;;;;6339568;22;20029;-88
2022/07/28 21:53:20;;;;;;;2.58;0.40;;;15.30;99.90;;;;;;6286503;22;20038;-88
2022/07/28 21:55:46;;;;;;;3.40;0.40;;;15.30;99.90;;;;;;6342320;22;20351;-87
2022/07/28 21:58:24;;;;;;;2.50;0.47;;;15.30;99.90;;;;;;6321049;22;20444;-89